createdAt,value
2019-03-12T00:00:34.636Z,0.40
2019-03-12T00:03:01.187Z,0.35
2019-03-12T00:05:27.733Z,0.33
2019-03-12T00:07:54.248Z,0.40
2019-03-12T00:10:20.557Z,0.33
2019-03-12T00:12:46.898Z,0.37
2019-03-12T00:15:13.271Z,0.40
2019-03-12T00:17:59.601Z,0.50
2019-03-12T00:20:26.134Z,0.40
2019-03-12T00:22:52.512Z,0.30
2019-03-12T00:25:18.819Z,0.30
2019-03-12T00:27:45.109Z,0.35
2019-03-12T00:30:11.438Z,0.42
2019-03-12T00:32:37.843Z,0.42
2019-03-12T00:35:23.982Z,0.55
2019-03-12T00:37:50.289Z,0.60
2019-03-12T00:40:16.570Z,0.47
2019-03-12T00:42:42.876Z,0.40
2019-03-12T00:45:10.451Z,0.40
2019-03-12T00:47:36.733Z,0.60
2019-03-12T00:50:05.687Z,0.50
2019-03-12T00:52:31.947Z,0.50
2019-03-12T00:54:58.224Z,0.40
2019-03-12T00:57:24.500Z,0.37
2019-03-12T00:59:50.787Z,0.40
2019-03-12T01:02:17.069Z,0.70
2019-03-12T01:04:43.366Z,0.30
2019-03-12T01:07:20.399Z,0.40
2019-03-12T01:09:46.797Z,0.45
2019-03-12T01:12:13.199Z,0.40
2019-03-12T01:14:39.566Z,0.35
2019-03-12T01:17:05.948Z,0.33
2019-03-12T01:19:32.215Z,0.42
2019-03-12T01:21:58.541Z,3.02
2019-03-12T01:24:24.788Z,0.60
2019-03-12T01:26:51.043Z,0.40
2019-03-12T01:29:17.330Z,0.30
2019-03-12T01:31:43.593Z,0.37
2019-03-12T01:34:20.282Z,0.30
2019-03-12T01:36:46.591Z,0.25
2019-03-12T01:39:12.889Z,0.45
2019-03-12T01:41:39.164Z,0.20
2019-03-12T01:44:05.411Z,0.20
2019-03-12T01:46:32.421Z,0.25
2019-03-12T01:48:58.695Z,0.30
2019-03-12T01:51:24.966Z,0.40
2019-03-12T01:53:51.299Z,0.20
2019-03-12T01:56:17.558Z,0.72
2019-03-12T01:58:43.861Z,0.28
2019-03-12T02:01:10.275Z,0.35
2019-03-12T02:03:36.685Z,0.60
2019-03-12T02:06:03.040Z,0.20
2019-03-12T02:08:29.447Z,0.30
2019-03-12T02:10:55.829Z,0.30
2019-03-12T02:13:22.155Z,0.62
2019-03-12T02:15:48.446Z,0.30
2019-03-12T02:18:14.743Z,0.30
2019-03-12T02:20:41.040Z,0.13
2019-03-12T02:23:29.003Z,0.20
2019-03-12T02:25:55.518Z,0.20
2019-03-12T02:28:21.833Z,0.28
2019-03-12T02:30:48.169Z,0.23
2019-03-12T02:33:14.677Z,0.45
2019-03-12T02:35:41.129Z,0.20
2019-03-12T02:38:07.532Z,0.30
2019-03-12T02:40:33.889Z,0.30
2019-03-12T02:43:00.304Z,0.60
2019-03-12T02:45:26.751Z,0.30
2019-03-12T02:47:53.293Z,0.25
2019-03-12T02:50:19.687Z,0.28
2019-03-12T02:52:46.222Z,0.30
2019-03-12T02:55:13.040Z,0.65
2019-03-12T02:57:39.499Z,0.40
2019-03-12T03:00:10.559Z,0.30
2019-03-12T03:02:37.242Z,0.30
2019-03-12T03:05:04.655Z,0.30
2019-03-12T03:07:32.990Z,0.20
2019-03-12T03:09:59.441Z,0.30
2019-03-12T03:12:36.754Z,0.20
2019-03-12T03:15:15.123Z,0.30
2019-03-12T03:17:41.649Z,0.30
2019-03-12T03:20:07.953Z,0.23
2019-03-12T03:22:34.421Z,0.33
2019-03-12T03:25:00.732Z,0.30
2019-03-12T03:27:29.285Z,0.40
2019-03-12T03:29:55.313Z,0.25
2019-03-12T03:32:21.674Z,0.50
2019-03-12T03:34:48.210Z,0.40
2019-03-12T03:37:14.509Z,0.28
2019-03-12T03:39:41.075Z,0.20
2019-03-12T03:42:09.422Z,0.50
2019-03-12T03:44:35.821Z,0.42
2019-03-12T03:47:02.735Z,0.30
2019-03-12T03:49:30.208Z,0.30
2019-03-12T03:51:56.530Z,0.50
2019-03-12T03:54:22.891Z,0.37
2019-03-12T03:56:49.179Z,0.30
2019-03-12T03:59:15.486Z,0.30
2019-03-12T04:01:41.946Z,0.20
2019-03-12T04:04:08.325Z,0.40
2019-03-12T04:06:34.784Z,0.20
2019-03-12T04:09:01.422Z,0.40
2019-03-12T04:11:29.642Z,0.30
2019-03-12T04:13:55.977Z,0.40
2019-03-12T04:16:22.379Z,0.40
2019-03-12T04:18:48.748Z,0.40
2019-03-12T04:21:15.145Z,0.50
2019-03-12T04:23:41.548Z,0.45
2019-03-12T04:26:09.149Z,0.45
2019-03-12T04:28:35.485Z,0.30
2019-03-12T04:31:01.861Z,0.50
2019-03-12T04:33:58.147Z,0.40
2019-03-12T04:36:24.446Z,0.42
2019-03-12T04:38:50.741Z,0.40
2019-03-12T04:41:17.037Z,0.47
2019-03-12T04:44:03.235Z,0.60
2019-03-12T04:46:29.673Z,0.53
2019-03-12T04:48:55.991Z,0.57
2019-03-12T04:51:42.143Z,0.50
2019-03-12T04:54:08.590Z,0.50
2019-03-12T04:56:34.857Z,0.55
2019-03-12T04:59:01.281Z,0.50
2019-03-12T05:01:27.693Z,0.60
2019-03-12T05:03:54.063Z,0.50
2019-03-12T05:06:20.500Z,0.60
2019-03-12T05:08:46.872Z,0.53
2019-03-12T05:11:13.206Z,1.32
2019-03-12T05:13:39.522Z,1.17
2019-03-12T05:16:05.860Z,0.90
2019-03-12T05:18:32.306Z,0.70
2019-03-12T05:21:00.294Z,0.80
2019-03-12T05:23:26.694Z,0.85
2019-03-12T05:25:53.135Z,0.90
2019-03-12T05:28:19.553Z,0.75
2019-03-12T05:30:46.589Z,0.60
2019-03-12T05:33:14.100Z,0.98
2019-03-12T05:35:40.482Z,0.70
2019-03-12T05:38:06.788Z,0.93
2019-03-12T05:40:33.133Z,1.10
2019-03-12T05:42:59.504Z,1.00
2019-03-12T05:45:26.025Z,0.80
2019-03-12T05:48:05.243Z,1.00
2019-03-12T05:50:31.685Z,0.70
2019-03-12T05:53:07.735Z,1.10
2019-03-12T05:55:34.123Z,1.00
2019-03-12T05:58:00.438Z,0.95
2019-03-12T06:00:27.487Z,1.10
2019-03-12T06:03:07.100Z,1.30
2019-03-12T06:05:33.451Z,1.30
2019-03-12T06:07:59.875Z,0.90
2019-03-12T06:10:26.188Z,0.80
2019-03-12T06:12:52.727Z,1.15
2019-03-12T06:15:19.142Z,0.70
2019-03-12T06:17:45.633Z,0.90
2019-03-12T06:20:16.116Z,0.90
2019-03-12T06:22:42.545Z,0.90
2019-03-12T06:25:09.069Z,0.72
2019-03-12T06:27:35.458Z,0.80
2019-03-12T06:30:01.773Z,0.88
2019-03-12T06:32:30.218Z,0.90
2019-03-12T06:34:58.409Z,1.15
2019-03-12T06:37:35.801Z,1.72
2019-03-12T06:40:18.860Z,1.77
2019-03-12T06:43:15.582Z,2.00
2019-03-12T06:45:49.825Z,1.90
2019-03-12T06:48:18.152Z,1.47
2019-03-12T06:50:47.332Z,2.50
2019-03-12T06:53:15.543Z,2.55
2019-03-12T06:55:46.528Z,2.20
2019-03-12T06:58:34.749Z,3.45
2019-03-12T07:01:20.010Z,2.30
2019-03-12T07:04:05.195Z,1.30
2019-03-12T07:06:33.482Z,0.98
2019-03-12T07:09:19.985Z,0.88
2019-03-12T07:12:00.506Z,0.35
2019-03-12T07:14:28.836Z,0.60
2019-03-12T07:17:03.132Z,0.37
2019-03-12T07:22:19.341Z,0.40
2019-03-12T07:25:05.885Z,0.33
2019-03-12T07:27:34.217Z,0.30
2019-03-12T07:30:17.791Z,0.30
2019-03-12T07:32:46.199Z,0.40
2019-03-12T07:35:29.763Z,0.40
2019-03-12T07:38:14.620Z,0.40
2019-03-12T07:40:48.947Z,0.33
2019-03-12T07:43:26.454Z,0.70
2019-03-12T07:46:03.863Z,1.05
2019-03-12T07:48:44.453Z,0.60
2019-03-12T07:51:21.545Z,0.53
2019-03-12T07:54:04.983Z,0.70
2019-03-12T07:56:55.199Z,0.65
2019-03-12T07:59:32.770Z,0.50
2019-03-12T08:02:07.123Z,0.60
2019-03-12T08:04:50.342Z,0.40
2019-03-12T08:07:30.941Z,0.30
2019-03-12T08:10:01.207Z,0.50
2019-03-12T08:12:29.575Z,0.30
2019-03-12T08:15:23.191Z,0.20
2019-03-12T08:17:47.556Z,0.23
2019-03-12T08:20:50.614Z,0.30
2019-03-12T08:23:36.127Z,0.30
2019-03-12T08:28:38.491Z,0.20
2019-03-12T08:31:09.675Z,0.30
2019-03-12T08:33:50.366Z,0.30
2019-03-12T08:36:26.109Z,0.23
2019-03-12T08:38:57.390Z,0.30
2019-03-12T08:41:28.537Z,0.30
2019-03-12T08:43:56.883Z,0.28
2019-03-12T08:46:34.424Z,0.28
2019-03-12T08:49:08.895Z,0.40
2019-03-12T08:51:40.908Z,0.20
2019-03-12T08:54:24.453Z,0.30
2019-03-12T08:56:52.756Z,0.37
2019-03-12T08:59:24.103Z,0.20
2019-03-12T09:02:10.915Z,0.30
2019-03-12T09:04:45.241Z,0.62
2019-03-12T09:07:25.498Z,0.20
2019-03-12T09:09:53.842Z,0.20
2019-03-12T09:12:22.150Z,0.23
2019-03-12T09:15:06.838Z,0.30
2019-03-12T09:17:35.257Z,0.30
2019-03-12T09:20:12.700Z,0.25
2019-03-12T09:23:00.490Z,0.30
2019-03-12T09:25:28.860Z,0.40
2019-03-12T09:28:13.767Z,0.50
2019-03-12T09:30:54.451Z,0.33
2019-03-12T09:33:39.779Z,0.25
2019-03-12T09:36:15.260Z,0.60
2019-03-12T09:38:43.511Z,0.50
2019-03-12T09:41:18.011Z,0.30
2019-03-12T09:44:12.065Z,0.20
2019-03-12T09:49:37.428Z,0.50
2019-03-12T09:52:06.466Z,0.20
2019-03-12T09:54:46.967Z,0.40
2019-03-12T09:57:15.225Z,0.20
2019-03-12T09:59:46.569Z,0.40
2019-03-12T10:02:21.072Z,0.30
2019-03-12T10:04:58.617Z,0.33
2019-03-12T10:07:29.941Z,0.35
2019-03-12T10:09:58.163Z,0.30
2019-03-12T10:12:26.830Z,0.40
2019-03-12T10:14:56.370Z,0.20
2019-03-12T10:17:27.374Z,0.20
2019-03-12T10:20:08.013Z,0.13
2019-03-12T10:22:48.106Z,0.30
2019-03-12T10:25:19.160Z,0.30
2019-03-12T10:27:56.478Z,0.10
2019-03-12T10:30:24.780Z,0.10
2019-03-12T10:33:08.061Z,0.20
2019-03-12T10:35:53.513Z,0.30
2019-03-12T10:38:58.997Z,0.30
2019-03-12T10:41:33.096Z,0.30
2019-03-12T10:44:01.351Z,0.20
2019-03-12T10:46:29.539Z,0.20
2019-03-12T10:48:56.442Z,0.30
2019-03-12T10:51:42.671Z,0.40
2019-03-12T10:54:10.040Z,0.30
2019-03-12T10:56:36.565Z,0.30
2019-03-12T10:59:22.851Z,0.30
2019-03-12T11:01:49.281Z,0.20
2019-03-12T11:04:15.765Z,0.20
2019-03-12T11:06:42.105Z,0.20
2019-03-12T11:09:08.594Z,0.30
2019-03-12T11:11:36.115Z,0.20
2019-03-12T11:14:02.436Z,0.20
2019-03-12T11:16:28.910Z,0.37
2019-03-12T11:18:55.322Z,0.30
2019-03-12T11:21:21.767Z,0.40
2019-03-12T11:23:48.068Z,0.25
2019-03-12T11:26:14.379Z,0.30
2019-03-12T11:28:40.827Z,0.40
2019-03-12T11:31:07.105Z,0.40
2019-03-12T11:33:33.538Z,0.37
2019-03-12T11:35:59.833Z,0.30
2019-03-12T11:38:26.256Z,0.30
2019-03-12T11:40:52.687Z,0.40
2019-03-12T11:43:19.213Z,0.35
2019-03-12T11:45:56.359Z,0.50
2019-03-12T11:48:22.897Z,0.40
2019-03-12T11:50:49.452Z,0.20
2019-03-12T11:53:15.859Z,0.28
2019-03-12T11:55:43.185Z,0.40
2019-03-12T11:58:09.626Z,0.35
2019-03-12T12:00:40.783Z,0.25
2019-03-12T12:03:07.232Z,0.30
2019-03-12T12:05:33.556Z,0.30
2019-03-12T12:08:00.215Z,0.30
2019-03-12T12:10:27.008Z,0.40
2019-03-12T12:12:53.349Z,0.35
2019-03-12T12:15:19.785Z,0.40
2019-03-12T12:17:49.140Z,0.35
2019-03-12T12:20:14.603Z,0.50
2019-03-12T12:22:41.041Z,0.50
2019-03-12T12:25:14.860Z,0.20
2019-03-12T12:27:41.301Z,0.28
2019-03-12T12:30:11.301Z,0.40
2019-03-12T12:32:37.834Z,0.35
2019-03-12T12:35:07.453Z,0.30
2019-03-12T12:37:35.823Z,0.40
2019-03-12T12:40:05.326Z,0.62
2019-03-12T12:42:32.044Z,0.30
2019-03-12T12:44:58.552Z,0.60
2019-03-12T12:47:24.842Z,0.47
2019-03-12T12:49:51.172Z,0.70
2019-03-12T12:52:17.616Z,0.60
2019-03-12T12:54:44.031Z,0.53
2019-03-12T12:57:10.670Z,0.33
2019-03-12T12:59:37.081Z,0.45
2019-03-12T13:02:23.368Z,0.40
2019-03-12T13:04:49.985Z,0.40
2019-03-12T13:07:16.303Z,0.37
2019-03-12T13:09:42.701Z,0.50
2019-03-12T13:12:09.122Z,0.40
2019-03-12T13:14:41.416Z,0.47
2019-03-12T13:17:17.159Z,0.50
2019-03-12T13:19:43.682Z,0.45
2019-03-12T13:22:10.527Z,0.33
2019-03-12T13:24:36.975Z,0.30
2019-03-12T13:27:03.270Z,0.35
2019-03-12T13:29:29.621Z,0.60
2019-03-12T13:31:55.968Z,0.82
2019-03-12T13:34:22.347Z,0.50
2019-03-12T13:36:48.890Z,0.42
2019-03-12T13:39:15.426Z,0.47
2019-03-12T13:42:01.764Z,0.40
2019-03-12T13:44:28.336Z,0.50
2019-03-12T13:46:54.984Z,0.42
2019-03-12T13:49:22.520Z,0.30
2019-03-12T13:51:48.984Z,0.33
2019-03-12T13:54:15.790Z,0.40
2019-03-12T13:56:42.092Z,0.50
2019-03-12T13:59:08.694Z,0.65
2019-03-12T14:01:35.090Z,0.57
2019-03-12T14:04:10.499Z,0.50
2019-03-12T14:06:29.951Z,0.65
2019-03-12T14:08:56.378Z,0.62
2019-03-12T14:11:23.202Z,0.33
2019-03-12T14:14:09.399Z,0.57
2019-03-12T14:16:35.841Z,0.60
2019-03-12T14:19:02.236Z,0.40
2019-03-12T14:21:32.248Z,0.80
2019-03-12T14:24:00.080Z,0.42
2019-03-12T14:26:26.483Z,0.60
2019-03-12T14:28:52.966Z,0.55
2019-03-12T14:31:19.341Z,0.30
2019-03-12T14:33:45.750Z,0.50
2019-03-12T14:36:12.382Z,0.50
2019-03-12T14:38:38.662Z,0.60
2019-03-12T14:41:04.985Z,0.47
2019-03-12T14:43:31.401Z,0.40
2019-03-12T14:45:57.827Z,0.68
2019-03-12T14:48:35.947Z,0.62
2019-03-12T14:51:03.671Z,0.68
2019-03-12T14:53:30.881Z,0.60
2019-03-12T14:56:09.199Z,0.70
2019-03-12T14:58:35.597Z,0.85
2019-03-12T15:01:03.758Z,0.65
2019-03-12T15:03:30.844Z,0.60
2019-03-12T15:05:57.935Z,0.70
2019-03-12T15:08:24.393Z,0.53
2019-03-12T15:10:51.035Z,0.80
2019-03-12T15:13:17.603Z,0.93
2019-03-12T15:15:44.022Z,0.80
2019-03-12T15:18:10.566Z,0.72
2019-03-12T15:20:36.885Z,0.62
2019-03-12T15:23:03.280Z,0.75
2019-03-12T15:25:43.543Z,0.53
2019-03-12T15:28:09.981Z,0.60
2019-03-12T15:30:36.500Z,0.60
2019-03-12T15:33:02.935Z,0.70
2019-03-12T15:35:29.316Z,1.07
2019-03-12T15:37:55.789Z,0.70
2019-03-12T15:40:22.073Z,0.60
2019-03-12T15:42:48.390Z,0.80
2019-03-12T15:45:15.116Z,0.65
2019-03-12T15:47:41.605Z,0.57
2019-03-12T15:50:10.359Z,0.62
2019-03-12T15:52:36.637Z,0.60
2019-03-12T15:55:03.991Z,0.30
2019-03-12T15:57:30.453Z,0.50
2019-03-12T15:59:56.869Z,0.47
2019-03-12T16:02:24.074Z,0.70
2019-03-12T16:04:50.456Z,0.60
2019-03-12T16:07:16.846Z,0.55
2019-03-12T16:09:43.186Z,1.35
2019-03-12T16:12:20.373Z,0.57
2019-03-12T16:14:46.865Z,0.93
2019-03-12T16:17:13.275Z,0.50
2019-03-12T16:19:39.846Z,0.62
2019-03-12T16:22:06.647Z,0.40
2019-03-12T16:24:33.192Z,1.00
2019-03-12T16:27:02.834Z,1.35
2019-03-12T16:29:28.417Z,1.05
2019-03-12T16:32:14.989Z,0.88
2019-03-12T16:34:41.481Z,0.90
2019-03-12T16:37:22.390Z,1.30
2019-03-12T16:39:48.869Z,0.85
2019-03-12T16:42:15.183Z,0.90
2019-03-12T16:44:41.757Z,0.78
2019-03-12T16:47:08.249Z,0.78
2019-03-12T16:49:47.890Z,1.10
2019-03-12T16:52:14.297Z,1.30
2019-03-12T16:54:40.695Z,0.95
2019-03-12T16:57:07.033Z,0.72
2019-03-12T16:59:33.579Z,1.10
2019-03-12T17:01:59.983Z,1.15
2019-03-12T17:04:37.066Z,1.55
2019-03-12T17:07:03.873Z,1.20
2019-03-12T17:09:30.279Z,0.95
2019-03-12T17:11:56.946Z,1.25
2019-03-12T17:14:23.783Z,3.20
2019-03-12T17:16:50.563Z,2.58
2019-03-12T17:19:18.358Z,1.12
2019-03-12T17:21:45.542Z,1.00
2019-03-12T17:24:12.507Z,0.90
2019-03-12T17:26:59.226Z,1.40
2019-03-12T17:29:26.924Z,1.32
2019-03-12T17:31:53.964Z,1.62
2019-03-12T17:34:20.949Z,2.10
2019-03-12T17:36:48.577Z,1.82
2019-03-12T17:39:17.370Z,2.02
2019-03-12T17:41:47.739Z,1.37
2019-03-12T17:44:15.658Z,1.77
2019-03-12T17:46:42.833Z,1.70
2019-03-12T17:49:12.696Z,5.10
2019-03-12T17:51:40.356Z,2.90
2019-03-12T17:54:08.280Z,2.40
2019-03-12T17:56:39.520Z,1.90
2019-03-12T17:59:06.985Z,1.90
2019-03-12T18:01:35.649Z,2.42
2019-03-12T18:04:02.639Z,2.65
2019-03-12T18:06:29.533Z,2.92
2019-03-12T18:08:56.501Z,2.47
2019-03-12T18:11:23.508Z,2.25
2019-03-12T18:13:50.492Z,2.15
2019-03-12T18:16:17.380Z,2.00
2019-03-12T18:18:44.379Z,1.85
2019-03-12T18:21:11.329Z,1.80
2019-03-12T18:23:38.321Z,2.83
2019-03-12T18:26:07.092Z,4.62
2019-03-12T18:28:34.001Z,3.20
2019-03-12T18:31:00.972Z,2.60
2019-03-12T18:33:27.894Z,2.60
2019-03-12T18:36:00.443Z,2.87
2019-03-12T18:38:47.961Z,1.87
2019-03-12T18:41:15.252Z,2.42
2019-03-12T18:43:42.435Z,2.00
2019-03-12T18:46:09.885Z,2.27
2019-03-12T18:48:37.013Z,2.00
2019-03-12T18:51:03.978Z,2.15
2019-03-12T18:53:30.853Z,2.27
2019-03-12T18:56:00.314Z,2.20
2019-03-12T18:58:27.179Z,1.90
2019-03-12T19:00:54.872Z,2.40
2019-03-12T19:06:04.987Z,2.33
2019-03-12T19:08:32.819Z,2.55
2019-03-12T19:11:01.800Z,2.20
2019-03-12T19:13:30.015Z,2.60
2019-03-12T19:15:57.154Z,4.83
2019-03-12T19:18:24.221Z,2.98
2019-03-12T19:20:51.788Z,4.62
2019-03-12T19:23:19.803Z,4.87
2019-03-12T19:25:59.593Z,2.92
2019-03-12T19:28:40.066Z,2.80
2019-03-12T19:31:17.628Z,2.90
2019-03-12T19:34:05.663Z,2.40
2019-03-12T19:36:33.868Z,2.60
2019-03-12T19:39:01.602Z,2.83
2019-03-12T19:41:32.976Z,2.67
2019-03-12T19:44:00.794Z,3.45
2019-03-12T19:46:27.743Z,3.00
2019-03-12T19:48:54.632Z,3.10
2019-03-12T19:51:21.629Z,2.70
2019-03-12T19:53:48.532Z,3.08
2019-03-12T19:56:16.120Z,3.15
2019-03-12T19:58:45.879Z,2.95
2019-03-12T20:01:13.288Z,2.77
2019-03-12T20:03:44.049Z,2.62
2019-03-12T20:06:15.376Z,2.42
2019-03-12T20:08:43.468Z,2.42
2019-03-12T20:11:32.207Z,2.27
2019-03-12T20:14:26.304Z,2.70
2019-03-12T20:17:18.682Z,2.75
2019-03-12T20:20:05.187Z,3.22
2019-03-12T20:23:09.413Z,3.05
2019-03-12T20:25:58.519Z,2.25
2019-03-12T20:29:01.330Z,2.50
2019-03-12T20:31:45.118Z,2.65
2019-03-12T20:34:25.191Z,2.55
2019-03-12T20:37:18.583Z,2.62
2019-03-12T20:40:22.670Z,2.60
2019-03-12T20:43:10.194Z,3.20
2019-03-12T20:46:13.975Z,3.02
2019-03-12T20:49:18.271Z,2.67
2019-03-12T20:52:20.893Z,2.60
2019-03-12T20:55:14.403Z,2.42
2019-03-12T20:58:07.743Z,2.42
2019-03-12T21:01:01.115Z,2.90
2019-03-12T21:03:52.734Z,2.50
2019-03-12T21:06:40.725Z,2.67
2019-03-12T21:09:44.980Z,3.12
2019-03-12T21:12:49.056Z,3.02
2019-03-12T21:15:29.044Z,2.47
2019-03-12T21:18:27.059Z,2.67
2019-03-12T21:21:31.115Z,3.00
2019-03-12T21:24:13.906Z,2.30
2019-03-12T21:27:02.617Z,2.62
2019-03-12T21:29:49.522Z,2.60
2019-03-12T21:32:17.082Z,2.60
2019-03-12T21:35:04.056Z,2.87
2019-03-12T21:37:30.687Z,3.02
2019-03-12T21:39:57.362Z,2.87
2019-03-12T21:42:25.306Z,3.00
2019-03-12T21:44:53.484Z,2.95
2019-03-12T21:47:20.025Z,2.22
2019-03-12T21:49:46.890Z,4.15
2019-03-12T21:52:13.459Z,2.77
2019-03-12T21:54:40.167Z,2.40
2019-03-12T21:57:06.599Z,2.70
2019-03-12T21:59:33.095Z,2.40
2019-03-12T22:01:59.603Z,2.55
2019-03-12T22:04:25.985Z,2.80
2019-03-12T22:06:52.420Z,2.83
2019-03-12T22:09:18.812Z,2.90
2019-03-12T22:11:45.250Z,2.65
2019-03-12T22:14:11.762Z,2.12
2019-03-12T22:16:38.187Z,2.33
2019-03-12T22:19:04.585Z,2.60
2019-03-12T22:21:39.226Z,2.42
2019-03-12T22:24:07.446Z,2.30
2019-03-12T22:26:34.196Z,2.27
2019-03-12T22:29:00.506Z,2.27
2019-03-12T22:31:26.910Z,2.55
2019-03-12T22:33:53.461Z,2.80
2019-03-12T22:36:19.866Z,2.10
2019-03-12T22:38:46.205Z,2.40
2019-03-12T22:41:25.631Z,2.58
2019-03-12T22:43:52.040Z,2.35
2019-03-12T22:46:31.749Z,2.67
2019-03-12T22:48:58.159Z,2.50
2019-03-12T22:51:24.738Z,2.70
2019-03-12T22:53:51.158Z,2.42
2019-03-12T22:56:17.430Z,2.20
2019-03-12T22:58:44.079Z,2.42
2019-03-12T23:04:33.913Z,2.00
2019-03-12T23:07:20.044Z,2.10
2019-03-12T23:09:48.422Z,2.20
2019-03-12T23:12:17.177Z,2.05
2019-03-12T23:14:45.696Z,2.58
2019-03-12T23:17:14.002Z,2.75
2019-03-12T23:19:42.251Z,2.58
2019-03-12T23:22:09.065Z,2.27
2019-03-12T23:24:35.472Z,2.30
2019-03-12T23:27:03.302Z,2.20
2019-03-12T23:29:30.206Z,2.30
2019-03-12T23:31:56.710Z,2.00
2019-03-12T23:34:23.021Z,2.35
2019-03-12T23:36:49.350Z,2.50
2019-03-12T23:39:15.742Z,2.10
2019-03-12T23:41:42.137Z,2.60
2019-03-12T23:44:08.631Z,2.27
2019-03-12T23:46:34.948Z,2.30
2019-03-12T23:49:01.254Z,2.45
2019-03-12T23:51:27.745Z,2.47
2019-03-12T23:54:14.035Z,1.85
2019-03-12T23:56:40.459Z,2.25
2019-03-12T23:59:06.854Z,2.45
